Airfield :
LOGIN :

Register | Disclaimer

   EN    FR    IT 

 










Legend :    VFR   Marginal VFR   IFR   Intensive IFR   Very Intensive IFR
Visi :
Ceiling :
>= 8 km
>= 3000ft
5 to 8 km
1000 to 3000 ft
1500m to 5 km
500 to 1000 ft
800 to 1500m
200 to 500 ft
< 800m
< 200 ft
Symbols :   Thunderstorms  Fog  Heavy snow  Heavy precipitations  Wind > 20 kt
SIGMETs :     Misc.  Thunderstorms  Icing  Turbulence  Mountain Waves  Volcanic Ashes







- Airport Elevation : 80 ft
- IATA code : LPL
- Download approach charts


EGGP - Liverpool John Lennon

CURRENT METAR :
  • 220550Z 17010KT 9999 OVC022 11/08 Q1025

EXPIRED METARs :
  • 220520Z 16008KT 9999 OVC022 10/08 Q1025
  • 220450Z 16008KT 9999 OVC022 10/08 Q1025
  • 220420Z 16007KT 9999 BKN013 OVC015 11/09 Q1026
  • 220350Z 19008KT 9999 BKN013 OVC015 11/08 Q1026
  • 220320Z 20008KT 9999 BKN013 OVC015 11/08 Q1026
  • 220250Z 20011KT 9999 BKN013 OVC015 11/08 Q1027

TAF TAF EGGP
Valid from the 22 at 06:00 until the 23 at 06:00 UTC


220502Z 2206/2306 18010KT 9999 SCT025
TEMPO 2206/2210 7000 BKN010
BECMG 2218/2221 27008KT
TEMPO 2218/2221 7000 RA BKN014
BECMG 2301/2304 33010KT
ATIS : +44 151 907 2000 (option 5 or ext 5150)
Met : +44 871 750 5150
No reported NOTAMs for that airfield.



MET'MAP, your aeronautical weather chart ! - Copyright ORBIFLY December 2007 - Disclaimer

ORBIFLY MET'MAP TEAM :

Programming & Development : Alexandra Zaïnal
Concept & Development : Baudouin d'Aumeries
Co-Development & Prog : Marc-Olivier Méhu
Technical & hardware support : Manuel Goepfert

Contact : metmap@orbifly.com




SOURCES & CREDITS :

   NOAA